sensor_id;sensor_type;location;lat;lon;timestamp;P1;durP1;ratioP1;P2;durP2;ratioP2
52956;SDS011;38819;42.692;23.342;2023-04-15T00:00:08;12.27;;;6.68;;
52956;SDS011;38819;42.692;23.342;2023-04-15T00:02:34;13.68;;;7.13;;
52956;SDS011;38819;42.692;23.342;2023-04-15T00:05:01;16.65;;;8.40;;
52956;SDS011;38819;42.692;23.342;2023-04-15T00:07:26;11.73;;;6.65;;
52956;SDS011;38819;42.692;23.342;2023-04-15T00:09:52;12.90;;;6.22;;
52956;SDS011;38819;42.692;23.342;2023-04-15T00:12:20;11.63;;;6.70;;
52956;SDS011;38819;42.692;23.342;2023-04-15T00:14:46;17.50;;;8.30;;
52956;SDS011;38819;42.692;23.342;2023-04-15T00:17:11;14.82;;;7.90;;
52956;SDS011;38819;42.692;23.342;2023-04-15T00:19:37;18.98;;;7.80;;
52956;SDS011;38819;42.692;23.342;2023-04-15T00:22:02;13.32;;;7.72;;
52956;SDS011;38819;42.692;23.342;2023-04-15T00:24:28;15.52;;;7.10;;
52956;SDS011;38819;42.692;23.342;2023-04-15T00:26:54;17.40;;;7.37;;
52956;SDS011;38819;42.692;23.342;2023-04-15T00:29:20;10.93;;;6.35;;
52956;SDS011;38819;42.692;23.342;2023-04-15T00:31:45;12.95;;;7.28;;
52956;SDS011;38819;42.692;23.342;2023-04-15T00:34:11;13.93;;;6.80;;
52956;SDS011;38819;42.692;23.342;2023-04-15T00:36:36;11.77;;;6.97;;
52956;SDS011;38819;42.692;23.342;2023-04-15T00:39:02;11.88;;;7.28;;
52956;SDS011;38819;42.692;23.342;2023-04-15T00:41:27;11.68;;;7.07;;
52956;SDS011;38819;42.692;23.342;2023-04-15T00:43:53;13.57;;;6.90;;
52956;SDS011;38819;42.692;23.342;2023-04-15T00:46:19;12.30;;;6.97;;
52956;SDS011;38819;42.692;23.342;2023-04-15T00:48:45;17.05;;;6.28;;
52956;SDS011;38819;42.692;23.342;2023-04-15T00:51:11;15.90;;;6.22;;
52956;SDS011;38819;42.692;23.342;2023-04-15T00:53:37;11.77;;;7.10;;
52956;SDS011;38819;42.692;23.342;2023-04-15T00:56:03;14.30;;;7.25;;
52956;SDS011;38819;42.692;23.342;2023-04-15T00:58:30;9.25;;;6.00;;
52956;SDS011;38819;42.692;23.342;2023-04-15T01:00:55;9.60;;;6.00;;
52956;SDS011;38819;42.692;23.342;2023-04-15T01:03:21;10.23;;;6.13;;
52956;SDS011;38819;42.692;23.342;2023-04-15T01:05:46;11.90;;;6.28;;
52956;SDS011;38819;42.692;23.342;2023-04-15T01:08:12;10.90;;;5.82;;
52956;SDS011;38819;42.692;23.342;2023-04-15T01:10:38;11.55;;;6.15;;
52956;SDS011;38819;42.692;23.342;2023-04-15T01:13:04;12.50;;;5.45;;
52956;SDS011;38819;42.692;23.342;2023-04-15T01:15:30;7.35;;;4.93;;
52956;SDS011;38819;42.692;23.342;2023-04-15T01:17:58;13.25;;;5.22;;
52956;SDS011;38819;42.692;23.342;2023-04-15T01:20:24;9.07;;;4.82;;
52956;SDS011;38819;42.692;23.342;2023-04-15T01:22:51;12.20;;;5.30;;
52956;SDS011;38819;42.692;23.342;2023-04-15T01:25:19;9.80;;;4.63;;
52956;SDS011;38819;42.692;23.342;2023-04-15T01:27:58;9.23;;;4.32;;
52956;SDS011;38819;42.692;23.342;2023-04-15T01:30:24;7.70;;;4.07;;
52956;SDS011;38819;42.692;23.342;2023-04-15T01:32:51;7.53;;;4.43;;
52956;SDS011;38819;42.692;23.342;2023-04-15T01:35:17;5.40;;;3.85;;
52956;SDS011;38819;42.692;23.342;2023-04-15T01:37:42;9.20;;;3.65;;
52956;SDS011;38819;42.692;23.342;2023-04-15T01:40:08;5.53;;;3.80;;
52956;SDS011;38819;42.692;23.342;2023-04-15T01:42:37;9.57;;;3.30;;
52956;SDS011;38819;42.692;23.342;2023-04-15T01:45:03;4.22;;;3.40;;
52956;SDS011;38819;42.692;23.342;2023-04-15T01:47:29;11.85;;;3.97;;
52956;SDS011;38819;42.692;23.342;2023-04-15T01:49:54;5.18;;;3.75;;
52956;SDS011;38819;42.692;23.342;2023-04-15T01:52:20;6.07;;;4.05;;
52956;SDS011;38819;42.692;23.342;2023-04-15T01:54:45;5.38;;;3.90;;
52956;SDS011;38819;42.692;23.342;2023-04-15T01:57:11;5.03;;;3.25;;
52956;SDS011;38819;42.692;23.342;2023-04-15T01:59:36;5.47;;;3.67;;
52956;SDS011;38819;42.692;23.342;2023-04-15T02:02:02;9.25;;;3.65;;
52956;SDS011;38819;42.692;23.342;2023-04-15T02:04:28;6.22;;;3.28;;
52956;SDS011;38819;42.692;23.342;2023-04-15T02:06:54;5.32;;;3.08;;
52956;SDS011;38819;42.692;23.342;2023-04-15T02:09:19;8.35;;;3.50;;
52956;SDS011;38819;42.692;23.342;2023-04-15T02:11:45;6.22;;;3.60;;
52956;SDS011;38819;42.692;23.342;2023-04-15T02:14:10;5.90;;;3.40;;
52956;SDS011;38819;42.692;23.342;2023-04-15T02:16:35;4.88;;;3.50;;
52956;SDS011;38819;42.692;23.342;2023-04-15T02:19:01;11.77;;;6.32;;
52956;SDS011;38819;42.692;23.342;2023-04-15T02:21:27;11.73;;;7.18;;
52956;SDS011;38819;42.692;23.342;2023-04-15T02:23:53;13.25;;;7.82;;
52956;SDS011;38819;42.692;23.342;2023-04-15T02:26:19;16.77;;;8.73;;
52956;SDS011;38819;42.692;23.342;2023-04-15T02:28:46;14.02;;;7.47;;
52956;SDS011;38819;42.692;23.342;2023-04-15T02:31:12;12.00;;;6.55;;
52956;SDS011;38819;42.692;23.342;2023-04-15T02:33:38;13.18;;;6.57;;
52956;SDS011;38819;42.692;23.342;2023-04-15T02:36:03;12.27;;;6.78;;
52956;SDS011;38819;42.692;23.342;2023-04-15T02:38:29;19.00;;;6.75;;
52956;SDS011;38819;42.692;23.342;2023-04-15T02:40:55;10.43;;;6.70;;
52956;SDS011;38819;42.692;23.342;2023-04-15T02:43:21;11.00;;;7.65;;
52956;SDS011;38819;42.692;23.342;2023-04-15T02:45:47;12.80;;;8.52;;
52956;SDS011;38819;42.692;23.342;2023-04-15T02:48:12;11.80;;;6.75;;
52956;SDS011;38819;42.692;23.342;2023-04-15T02:50:38;12.48;;;7.40;;
52956;SDS011;38819;42.692;23.342;2023-04-15T02:53:04;11.77;;;6.88;;
52956;SDS011;38819;42.692;23.342;2023-04-15T02:55:30;11.75;;;6.82;;
52956;SDS011;38819;42.692;23.342;2023-04-15T02:57:56;10.18;;;6.78;;
52956;SDS011;38819;42.692;23.342;2023-04-15T03:00:24;14.77;;;6.80;;
52956;SDS011;38819;42.692;23.342;2023-04-15T03:02:50;11.90;;;6.60;;
52956;SDS011;38819;42.692;23.342;2023-04-15T03:05:20;8.70;;;6.22;;
52956;SDS011;38819;42.692;23.342;2023-04-15T03:07:50;9.40;;;5.43;;
52956;SDS011;38819;42.692;23.342;2023-04-15T03:10:16;9.80;;;5.20;;
52956;SDS011;38819;42.692;23.342;2023-04-15T03:12:41;8.52;;;4.88;;
52956;SDS011;38819;42.692;23.342;2023-04-15T03:15:07;7.38;;;5.07;;
52956;SDS011;38819;42.692;23.342;2023-04-15T03:17:33;4.60;;;4.10;;
52956;SDS011;38819;42.692;23.342;2023-04-15T03:20:02;11.05;;;4.72;;
52956;SDS011;38819;42.692;23.342;2023-04-15T03:22:31;6.78;;;4.22;;
52956;SDS011;38819;42.692;23.342;2023-04-15T03:24:57;8.10;;;4.53;;
52956;SDS011;38819;42.692;23.342;2023-04-15T03:27:23;5.95;;;4.03;;
52956;SDS011;38819;42.692;23.342;2023-04-15T03:29:48;8.30;;;4.90;;
52956;SDS011;38819;42.692;23.342;2023-04-15T03:32:14;8.20;;;4.82;;
52956;SDS011;38819;42.692;23.342;2023-04-15T03:34:40;7.75;;;4.60;;
52956;SDS011;38819;42.692;23.342;2023-04-15T03:37:06;6.40;;;4.57;;
52956;SDS011;38819;42.692;23.342;2023-04-15T03:39:32;9.55;;;6.18;;
52956;SDS011;38819;42.692;23.342;2023-04-15T03:41:58;8.98;;;5.25;;
52956;SDS011;38819;42.692;23.342;2023-04-15T03:44:25;6.22;;;4.10;;
52956;SDS011;38819;42.692;23.342;2023-04-15T03:46:50;8.43;;;5.07;;
52956;SDS011;38819;42.692;23.342;2023-04-15T03:49:16;5.95;;;4.18;;
52956;SDS011;38819;42.692;23.342;2023-04-15T03:51:43;8.05;;;5.47;;
52956;SDS011;38819;42.692;23.342;2023-04-15T03:54:09;8.77;;;4.53;;
52956;SDS011;38819;42.692;23.342;2023-04-15T03:56:35;10.80;;;4.50;;
52956;SDS011;38819;42.692;23.342;2023-04-15T03:59:00;5.55;;;4.82;;
52956;SDS011;38819;42.692;23.342;2023-04-15T04:01:26;8.77;;;4.30;;
52956;SDS011;38819;42.692;23.342;2023-04-15T04:03:51;8.60;;;4.88;;
52956;SDS011;38819;42.692;23.342;2023-04-15T04:06:17;11.43;;;5.13;;
52956;SDS011;38819;42.692;23.342;2023-04-15T04:08:42;11.77;;;5.10;;
52956;SDS011;38819;42.692;23.342;2023-04-15T04:11:08;8.57;;;4.72;;
52956;SDS011;38819;42.692;23.342;2023-04-15T04:13:33;8.35;;;4.90;;
52956;SDS011;38819;42.692;23.342;2023-04-15T04:15:59;9.68;;;4.63;;
52956;SDS011;38819;42.692;23.342;2023-04-15T04:18:24;7.05;;;4.88;;
52956;SDS011;38819;42.692;23.342;2023-04-15T04:20:49;8.55;;;4.78;;
52956;SDS011;38819;42.692;23.342;2023-04-15T04:23:15;6.15;;;4.15;;
52956;SDS011;38819;42.692;23.342;2023-04-15T04:25:40;11.00;;;4.85;;
52956;SDS011;38819;42.692;23.342;2023-04-15T04:28:06;11.45;;;5.88;;
52956;SDS011;38819;42.692;23.342;2023-04-15T04:30:31;13.32;;;6.40;;
52956;SDS011;38819;42.692;23.342;2023-04-15T04:32:57;9.35;;;5.97;;
52956;SDS011;38819;42.692;23.342;2023-04-15T04:35:22;9.85;;;6.22;;
52956;SDS011;38819;42.692;23.342;2023-04-15T04:37:48;13.82;;;7.38;;
52956;SDS011;38819;42.692;23.342;2023-04-15T04:40:13;8.73;;;6.32;;
52956;SDS011;38819;42.692;23.342;2023-04-15T04:42:39;15.45;;;5.90;;
52956;SDS011;38819;42.692;23.342;2023-04-15T04:45:06;16.80;;;7.07;;
52956;SDS011;38819;42.692;23.342;2023-04-15T04:47:31;22.13;;;12.18;;
52956;SDS011;38819;42.692;23.342;2023-04-15T04:49:57;20.65;;;10.07;;
52956;SDS011;38819;42.692;23.342;2023-04-15T04:52:22;13.93;;;7.45;;
52956;SDS011;38819;42.692;23.342;2023-04-15T04:54:48;12.07;;;6.72;;
52956;SDS011;38819;42.692;23.342;2023-04-15T04:57:13;8.63;;;6.43;;
52956;SDS011;38819;42.692;23.342;2023-04-15T04:59:38;10.88;;;7.53;;
52956;SDS011;38819;42.692;23.342;2023-04-15T05:02:04;14.43;;;9.00;;
52956;SDS011;38819;42.692;23.342;2023-04-15T05:04:30;18.08;;;8.27;;
52956;SDS011;38819;42.692;23.342;2023-04-15T05:06:56;17.33;;;9.30;;
52956;SDS011;38819;42.692;23.342;2023-04-15T05:09:22;12.98;;;8.30;;
52956;SDS011;38819;42.692;23.342;2023-04-15T05:11:47;15.63;;;8.55;;
52956;SDS011;38819;42.692;23.342;2023-04-15T05:14:13;21.23;;;9.07;;
52956;SDS011;38819;42.692;23.342;2023-04-15T05:16:38;14.18;;;8.70;;
52956;SDS011;38819;42.692;23.342;2023-04-15T05:19:03;14.95;;;9.32;;
52956;SDS011;38819;42.692;23.342;2023-04-15T05:21:29;16.95;;;7.97;;
52956;SDS011;38819;42.692;23.342;2023-04-15T05:23:55;13.25;;;8.07;;
52956;SDS011;38819;42.692;23.342;2023-04-15T05:26:21;14.98;;;7.40;;
52956;SDS011;38819;42.692;23.342;2023-04-15T05:28:46;12.23;;;5.85;;
52956;SDS011;38819;42.692;23.342;2023-04-15T05:31:12;18.48;;;6.47;;
52956;SDS011;38819;42.692;23.342;2023-04-15T05:33:38;11.50;;;6.25;;
52956;SDS011;38819;42.692;23.342;2023-04-15T05:36:04;13.23;;;7.10;;
52956;SDS011;38819;42.692;23.342;2023-04-15T05:38:30;10.20;;;5.65;;
52956;SDS011;38819;42.692;23.342;2023-04-15T05:40:55;10.48;;;5.07;;
52956;SDS011;38819;42.692;23.342;2023-04-15T05:43:21;8.45;;;4.63;;
52956;SDS011;38819;42.692;23.342;2023-04-15T05:45:46;12.77;;;5.20;;
52956;SDS011;38819;42.692;23.342;2023-04-15T05:48:12;14.27;;;6.40;;
52956;SDS011;38819;42.692;23.342;2023-04-15T05:50:39;10.30;;;5.00;;
52956;SDS011;38819;42.692;23.342;2023-04-15T05:53:06;11.15;;;5.13;;
52956;SDS011;38819;42.692;23.342;2023-04-15T05:55:32;7.72;;;5.68;;
52956;SDS011;38819;42.692;23.342;2023-04-15T05:57:57;8.82;;;5.00;;
52956;SDS011;38819;42.692;23.342;2023-04-15T06:00:23;10.95;;;6.03;;
52956;SDS011;38819;42.692;23.342;2023-04-15T06:02:48;10.65;;;4.53;;
52956;SDS011;38819;42.692;23.342;2023-04-15T06:05:14;8.75;;;4.78;;
52956;SDS011;38819;42.692;23.342;2023-04-15T06:07:39;11.75;;;4.28;;
52956;SDS011;38819;42.692;23.342;2023-04-15T06:10:05;10.93;;;4.10;;
52956;SDS011;38819;42.692;23.342;2023-04-15T06:12:31;7.50;;;3.97;;
52956;SDS011;38819;42.692;23.342;2023-04-15T06:14:57;8.23;;;4.03;;
52956;SDS011;38819;42.692;23.342;2023-04-15T06:17:23;7.85;;;3.90;;
52956;SDS011;38819;42.692;23.342;2023-04-15T06:19:48;5.72;;;4.57;;
52956;SDS011;38819;42.692;23.342;2023-04-15T06:22:19;13.00;;;5.47;;
52956;SDS011;38819;42.692;23.342;2023-04-15T06:24:45;10.85;;;5.75;;
52956;SDS011;38819;42.692;23.342;2023-04-15T06:27:10;12.95;;;6.30;;
52956;SDS011;38819;42.692;23.342;2023-04-15T06:29:35;12.82;;;6.18;;
52956;SDS011;38819;42.692;23.342;2023-04-15T06:32:01;8.75;;;6.32;;
52956;SDS011;38819;42.692;23.342;2023-04-15T06:34:26;14.48;;;5.82;;
52956;SDS011;38819;42.692;23.342;2023-04-15T06:36:52;13.43;;;6.45;;
52956;SDS011;38819;42.692;23.342;2023-04-15T06:39:18;10.80;;;6.72;;
52956;SDS011;38819;42.692;23.342;2023-04-15T06:41:44;17.08;;;7.07;;
52956;SDS011;38819;42.692;23.342;2023-04-15T06:44:09;13.82;;;6.78;;
52956;SDS011;38819;42.692;23.342;2023-04-15T06:46:35;8.90;;;5.85;;
52956;SDS011;38819;42.692;23.342;2023-04-15T06:49:00;10.90;;;4.95;;
52956;SDS011;38819;42.692;23.342;2023-04-15T06:51:26;10.80;;;5.22;;
52956;SDS011;38819;42.692;23.342;2023-04-15T06:53:51;11.50;;;5.25;;
52956;SDS011;38819;42.692;23.342;2023-04-15T06:56:17;10.15;;;5.95;;
52956;SDS011;38819;42.692;23.342;2023-04-15T06:58:42;13.70;;;6.05;;
52956;SDS011;38819;42.692;23.342;2023-04-15T07:01:08;9.90;;;6.00;;
52956;SDS011;38819;42.692;23.342;2023-04-15T07:03:33;7.85;;;5.53;;
52956;SDS011;38819;42.692;23.342;2023-04-15T07:05:59;13.07;;;5.78;;
52956;SDS011;38819;42.692;23.342;2023-04-15T07:08:25;12.35;;;5.72;;
52956;SDS011;38819;42.692;23.342;2023-04-15T07:10:51;9.80;;;5.18;;
52956;SDS011;38819;42.692;23.342;2023-04-15T07:13:16;8.35;;;4.95;;
52956;SDS011;38819;42.692;23.342;2023-04-15T07:15:41;9.35;;;4.43;;
52956;SDS011;38819;42.692;23.342;2023-04-15T07:18:07;8.15;;;5.07;;
52956;SDS011;38819;42.692;23.342;2023-04-15T07:20:33;14.18;;;4.90;;
52956;SDS011;38819;42.692;23.342;2023-04-15T07:22:59;6.78;;;4.50;;
52956;SDS011;38819;42.692;23.342;2023-04-15T07:25:24;10.55;;;5.30;;
52956;SDS011;38819;42.692;23.342;2023-04-15T07:27:51;14.15;;;5.38;;
52956;SDS011;38819;42.692;23.342;2023-04-15T07:30:17;9.10;;;4.57;;
52956;SDS011;38819;42.692;23.342;2023-04-15T07:32:42;7.53;;;4.22;;
52956;SDS011;38819;42.692;23.342;2023-04-15T07:35:08;7.25;;;4.00;;
52956;SDS011;38819;42.692;23.342;2023-04-15T07:37:33;8.98;;;5.00;;
52956;SDS011;38819;42.692;23.342;2023-04-15T07:40:00;11.35;;;5.80;;
52956;SDS011;38819;42.692;23.342;2023-04-15T07:42:25;8.73;;;4.95;;
52956;SDS011;38819;42.692;23.342;2023-04-15T07:44:51;8.30;;;4.43;;
52956;SDS011;38819;42.692;23.342;2023-04-15T07:47:17;8.77;;;5.40;;
52956;SDS011;38819;42.692;23.342;2023-04-15T07:49:42;11.25;;;4.50;;
52956;SDS011;38819;42.692;23.342;2023-04-15T07:52:08;8.68;;;4.13;;
52956;SDS011;38819;42.692;23.342;2023-04-15T07:54:34;6.22;;;3.95;;
52956;SDS011;38819;42.692;23.342;2023-04-15T07:56:59;8.60;;;4.22;;
52956;SDS011;38819;42.692;23.342;2023-04-15T07:59:25;7.97;;;4.25;;
52956;SDS011;38819;42.692;23.342;2023-04-15T08:01:53;11.60;;;4.13;;
52956;SDS011;38819;42.692;23.342;2023-04-15T08:04:19;7.72;;;4.50;;
52956;SDS011;38819;42.692;23.342;2023-04-15T08:06:45;7.82;;;4.45;;
52956;SDS011;38819;42.692;23.342;2023-04-15T08:09:12;9.15;;;4.40;;
52956;SDS011;38819;42.692;23.342;2023-04-15T08:11:37;6.90;;;4.15;;
52956;SDS011;38819;42.692;23.342;2023-04-15T08:14:03;10.88;;;3.67;;
52956;SDS011;38819;42.692;23.342;2023-04-15T08:16:28;11.07;;;3.92;;
52956;SDS011;38819;42.692;23.342;2023-04-15T08:18:54;8.00;;;3.20;;
52956;SDS011;38819;42.692;23.342;2023-04-15T08:21:21;9.13;;;2.80;;
52956;SDS011;38819;42.692;23.342;2023-04-15T08:23:47;5.13;;;2.78;;
52956;SDS011;38819;42.692;23.342;2023-04-15T08:26:14;2.80;;;2.00;;
52956;SDS011;38819;42.692;23.342;2023-04-15T08:28:41;2.97;;;2.25;;
52956;SDS011;38819;42.692;23.342;2023-04-15T08:31:07;6.93;;;2.30;;
52956;SDS011;38819;42.692;23.342;2023-04-15T08:33:33;4.80;;;1.80;;
52956;SDS011;38819;42.692;23.342;2023-04-15T08:35:59;9.05;;;3.53;;
52956;SDS011;38819;42.692;23.342;2023-04-15T08:38:24;10.70;;;4.30;;
52956;SDS011;38819;42.692;23.342;2023-04-15T08:40:49;8.57;;;4.85;;
52956;SDS011;38819;42.692;23.342;2023-04-15T08:43:22;10.30;;;4.15;;
52956;SDS011;38819;42.692;23.342;2023-04-15T08:45:51;6.50;;;4.50;;
52956;SDS011;38819;42.692;23.342;2023-04-15T08:48:17;6.50;;;4.22;;
52956;SDS011;38819;42.692;23.342;2023-04-15T08:50:43;9.45;;;4.38;;
52956;SDS011;38819;42.692;23.342;2023-04-15T08:53:10;8.90;;;3.70;;
52956;SDS011;38819;42.692;23.342;2023-04-15T08:55:37;7.40;;;3.53;;
52956;SDS011;38819;42.692;23.342;2023-04-15T08:58:10;7.38;;;4.00;;
52956;SDS011;38819;42.692;23.342;2023-04-15T09:00:36;7.37;;;3.83;;
52956;SDS011;38819;42.692;23.342;2023-04-15T09:03:05;6.28;;;3.25;;
52956;SDS011;38819;42.692;23.342;2023-04-15T09:05:32;8.55;;;3.50;;
52956;SDS011;38819;42.692;23.342;2023-04-15T09:07:58;7.32;;;2.78;;
52956;SDS011;38819;42.692;23.342;2023-04-15T09:10:24;8.43;;;3.30;;
52956;SDS011;38819;42.692;23.342;2023-04-15T09:12:49;3.53;;;2.30;;
52956;SDS011;38819;42.692;23.342;2023-04-15T09:15:15;3.35;;;2.30;;
52956;SDS011;38819;42.692;23.342;2023-04-15T09:17:42;4.10;;;2.50;;
52956;SDS011;38819;42.692;23.342;2023-04-15T09:20:09;4.22;;;2.28;;
52956;SDS011;38819;42.692;23.342;2023-04-15T09:22:40;6.57;;;3.20;;
52956;SDS011;38819;42.692;23.342;2023-04-15T09:25:27;6.40;;;2.60;;
52956;SDS011;38819;42.692;23.342;2023-04-15T09:27:54;7.07;;;4.18;;
52956;SDS011;38819;42.692;23.342;2023-04-15T09:30:20;6.57;;;2.40;;
52956;SDS011;38819;42.692;23.342;2023-04-15T09:32:50;4.57;;;1.75;;
52956;SDS011;38819;42.692;23.342;2023-04-15T09:35:16;4.00;;;1.85;;
52956;SDS011;38819;42.692;23.342;2023-04-15T09:37:42;4.70;;;2.40;;
52956;SDS011;38819;42.692;23.342;2023-04-15T09:40:08;5.28;;;2.00;;
52956;SDS011;38819;42.692;23.342;2023-04-15T09:42:55;5.03;;;1.80;;
52956;SDS011;38819;42.692;23.342;2023-04-15T09:45:21;3.83;;;1.80;;
52956;SDS011;38819;42.692;23.342;2023-04-15T09:47:47;3.70;;;2.05;;
52956;SDS011;38819;42.692;23.342;2023-04-15T09:50:12;3.40;;;2.20;;
52956;SDS011;38819;42.692;23.342;2023-04-15T09:52:43;3.63;;;1.60;;
52956;SDS011;38819;42.692;23.342;2023-04-15T09:55:09;3.83;;;1.80;;
52956;SDS011;38819;42.692;23.342;2023-04-15T09:57:35;4.38;;;1.80;;
52956;SDS011;38819;42.692;23.342;2023-04-15T10:00:05;3.75;;;1.40;;
52956;SDS011;38819;42.692;23.342;2023-04-15T10:02:33;6.07;;;2.28;;
52956;SDS011;38819;42.692;23.342;2023-04-15T10:05:00;2.92;;;2.10;;
52956;SDS011;38819;42.692;23.342;2023-04-15T10:07:27;2.28;;;1.73;;
52956;SDS011;38819;42.692;23.342;2023-04-15T10:09:52;5.03;;;1.85;;
52956;SDS011;38819;42.692;23.342;2023-04-15T10:12:19;4.05;;;2.03;;
52956;SDS011;38819;42.692;23.342;2023-04-15T10:14:55;3.33;;;1.80;;
52956;SDS011;38819;42.692;23.342;2023-04-15T10:17:23;1.55;;;1.38;;
52956;SDS011;38819;42.692;23.342;2023-04-15T10:19:53;4.10;;;1.45;;
52956;SDS011;38819;42.692;23.342;2023-04-15T10:22:19;6.45;;;1.92;;
52956;SDS011;38819;42.692;23.342;2023-04-15T10:24:45;3.67;;;1.00;;
52956;SDS011;38819;42.692;23.342;2023-04-15T10:27:11;7.10;;;1.20;;
52956;SDS011;38819;42.692;23.342;2023-04-15T10:29:37;2.17;;;1.30;;
52956;SDS011;38819;42.692;23.342;2023-04-15T10:32:03;6.68;;;1.15;;
52956;SDS011;38819;42.692;23.342;2023-04-15T10:34:29;3.42;;;1.35;;
52956;SDS011;38819;42.692;23.342;2023-04-15T10:37:00;1.67;;;0.90;;
52956;SDS011;38819;42.692;23.342;2023-04-15T10:42:05;6.50;;;1.83;;
52956;SDS011;38819;42.692;23.342;2023-04-15T10:44:32;3.80;;;1.52;;
52956;SDS011;38819;42.692;23.342;2023-04-15T10:46:57;3.10;;;2.60;;
52956;SDS011;38819;42.692;23.342;2023-04-15T10:49:23;3.00;;;1.23;;
52956;SDS011;38819;42.692;23.342;2023-04-15T10:51:50;1.90;;;1.10;;
52956;SDS011;38819;42.692;23.342;2023-04-15T10:57:06;3.53;;;1.15;;
52956;SDS011;38819;42.692;23.342;2023-04-15T10:59:37;5.07;;;1.30;;
52956;SDS011;38819;42.692;23.342;2023-04-15T11:05:21;2.95;;;1.00;;
52956;SDS011;38819;42.692;23.342;2023-04-15T11:08:07;3.58;;;0.65;;
52956;SDS011;38819;42.692;23.342;2023-04-15T11:13:00;4.53;;;1.55;;
52956;SDS011;38819;42.692;23.342;2023-04-15T11:17:58;2.55;;;1.13;;
52956;SDS011;38819;42.692;23.342;2023-04-15T11:20:32;4.40;;;1.10;;
52956;SDS011;38819;42.692;23.342;2023-04-15T11:22:58;5.25;;;1.50;;
52956;SDS011;38819;42.692;23.342;2023-04-15T11:25:27;1.92;;;1.10;;
52956;SDS011;38819;42.692;23.342;2023-04-15T11:27:54;3.60;;;1.17;;
52956;SDS011;38819;42.692;23.342;2023-04-15T11:32:47;1.40;;;0.93;;
52956;SDS011;38819;42.692;23.342;2023-04-15T11:35:17;2.53;;;1.23;;
52956;SDS011;38819;42.692;23.342;2023-04-15T11:37:47;4.22;;;2.00;;
52956;SDS011;38819;42.692;23.342;2023-04-15T11:40:16;1.52;;;1.40;;
52956;SDS011;38819;42.692;23.342;2023-04-15T11:42:46;2.58;;;1.33;;
52956;SDS011;38819;42.692;23.342;2023-04-15T11:45:13;4.93;;;1.15;;
52956;SDS011;38819;42.692;23.342;2023-04-15T11:47:42;2.72;;;1.20;;
52956;SDS011;38819;42.692;23.342;2023-04-15T11:50:20;3.67;;;0.90;;
52956;SDS011;38819;42.692;23.342;2023-04-15T11:55:22;1.23;;;0.43;;
52956;SDS011;38819;42.692;23.342;2023-04-15T11:57:49;3.53;;;1.47;;
52956;SDS011;38819;42.692;23.342;2023-04-15T12:00:29;4.68;;;2.75;;
52956;SDS011;38819;42.692;23.342;2023-04-15T12:03:10;1.02;;;0.90;;
52956;SDS011;38819;42.692;23.342;2023-04-15T12:06:04;3.33;;;1.00;;
52956;SDS011;38819;42.692;23.342;2023-04-15T12:13:57;1.33;;;1.00;;
52956;SDS011;38819;42.692;23.342;2023-04-15T12:16:27;4.00;;;1.15;;
52956;SDS011;38819;42.692;23.342;2023-04-15T12:18:54;3.60;;;0.80;;
52956;SDS011;38819;42.692;23.342;2023-04-15T12:21:21;2.55;;;0.93;;
52956;SDS011;38819;42.692;23.342;2023-04-15T12:26:27;2.53;;;0.98;;
52956;SDS011;38819;42.692;23.342;2023-04-15T12:28:54;3.35;;;1.08;;
52956;SDS011;38819;42.692;23.342;2023-04-15T12:31:21;3.00;;;0.98;;
52956;SDS011;38819;42.692;23.342;2023-04-15T12:33:47;5.07;;;1.00;;
52956;SDS011;38819;42.692;23.342;2023-04-15T12:36:13;3.83;;;1.10;;
52956;SDS011;38819;42.692;23.342;2023-04-15T12:38:39;1.48;;;0.70;;
52956;SDS011;38819;42.692;23.342;2023-04-15T12:41:05;4.28;;;0.90;;
52956;SDS011;38819;42.692;23.342;2023-04-15T12:43:30;1.58;;;0.80;;
52956;SDS011;38819;42.692;23.342;2023-04-15T12:45:56;1.92;;;0.80;;
52956;SDS011;38819;42.692;23.342;2023-04-15T12:48:21;1.48;;;0.82;;
52956;SDS011;38819;42.692;23.342;2023-04-15T12:50:47;2.17;;;0.93;;
52956;SDS011;38819;42.692;23.342;2023-04-15T12:53:12;1.92;;;1.00;;
52956;SDS011;38819;42.692;23.342;2023-04-15T12:55:37;1.10;;;0.85;;
52956;SDS011;38819;42.692;23.342;2023-04-15T12:58:03;4.13;;;0.60;;
52956;SDS011;38819;42.692;23.342;2023-04-15T13:00:28;0.77;;;0.70;;
52956;SDS011;38819;42.692;23.342;2023-04-15T13:02:54;1.17;;;0.57;;
52956;SDS011;38819;42.692;23.342;2023-04-15T13:05:19;1.50;;;0.82;;
52956;SDS011;38819;42.692;23.342;2023-04-15T13:07:45;6.53;;;0.93;;
52956;SDS011;38819;42.692;23.342;2023-04-15T13:10:10;1.95;;;0.75;;
52956;SDS011;38819;42.692;23.342;2023-04-15T13:12:35;2.47;;;1.05;;
52956;SDS011;38819;42.692;23.342;2023-04-15T13:15:01;4.25;;;0.80;;
52956;SDS011;38819;42.692;23.342;2023-04-15T13:17:28;3.20;;;1.08;;
52956;SDS011;38819;42.692;23.342;2023-04-15T13:19:53;3.05;;;0.90;;
52956;SDS011;38819;42.692;23.342;2023-04-15T13:22:19;3.30;;;1.25;;
52956;SDS011;38819;42.692;23.342;2023-04-15T13:24:44;3.00;;;0.90;;
52956;SDS011;38819;42.692;23.342;2023-04-15T13:27:10;1.80;;;0.77;;
52956;SDS011;38819;42.692;23.342;2023-04-15T13:29:35;1.90;;;0.82;;
52956;SDS011;38819;42.692;23.342;2023-04-15T13:32:01;2.35;;;1.20;;
52956;SDS011;38819;42.692;23.342;2023-04-15T13:34:27;1.38;;;0.50;;
52956;SDS011;38819;42.692;23.342;2023-04-15T13:36:52;3.60;;;0.73;;
52956;SDS011;38819;42.692;23.342;2023-04-15T13:39:18;1.05;;;0.60;;
52956;SDS011;38819;42.692;23.342;2023-04-15T13:41:43;1.30;;;0.45;;
52956;SDS011;38819;42.692;23.342;2023-04-15T13:44:08;3.03;;;0.90;;
52956;SDS011;38819;42.692;23.342;2023-04-15T13:51:28;2.22;;;0.98;;
52956;SDS011;38819;42.692;23.342;2023-04-15T13:53:54;1.05;;;0.70;;
52956;SDS011;38819;42.692;23.342;2023-04-15T13:56:22;2.80;;;0.98;;
52956;SDS011;38819;42.692;23.342;2023-04-15T13:58:47;1.20;;;0.60;;
52956;SDS011;38819;42.692;23.342;2023-04-15T14:01:13;3.10;;;0.63;;
52956;SDS011;38819;42.692;23.342;2023-04-15T14:03:38;1.92;;;0.70;;
52956;SDS011;38819;42.692;23.342;2023-04-15T14:06:04;1.83;;;0.60;;
52956;SDS011;38819;42.692;23.342;2023-04-15T14:08:30;2.60;;;0.80;;
52956;SDS011;38819;42.692;23.342;2023-04-15T14:10:55;6.63;;;0.98;;
52956;SDS011;38819;42.692;23.342;2023-04-15T14:13:21;2.95;;;0.85;;
52956;SDS011;38819;42.692;23.342;2023-04-15T14:15:47;1.52;;;1.02;;
52956;SDS011;38819;42.692;23.342;2023-04-15T14:18:12;1.30;;;0.77;;
52956;SDS011;38819;42.692;23.342;2023-04-15T14:20:38;8.40;;;1.10;;
52956;SDS011;38819;42.692;23.342;2023-04-15T14:23:03;2.78;;;1.02;;
52956;SDS011;38819;42.692;23.342;2023-04-15T14:25:29;1.70;;;1.00;;
52956;SDS011;38819;42.692;23.342;2023-04-15T14:27:54;2.17;;;0.80;;
52956;SDS011;38819;42.692;23.342;2023-04-15T14:30:20;1.50;;;0.65;;
52956;SDS011;38819;42.692;23.342;2023-04-15T14:32:45;1.52;;;0.63;;
52956;SDS011;38819;42.692;23.342;2023-04-15T14:35:11;1.40;;;0.65;;
52956;SDS011;38819;42.692;23.342;2023-04-15T14:37:36;1.10;;;0.77;;
52956;SDS011;38819;42.692;23.342;2023-04-15T14:40:02;0.95;;;0.57;;
52956;SDS011;38819;42.692;23.342;2023-04-15T14:42:27;1.58;;;0.70;;
52956;SDS011;38819;42.692;23.342;2023-04-15T14:44:52;2.05;;;0.77;;
52956;SDS011;38819;42.692;23.342;2023-04-15T14:47:18;2.00;;;0.90;;
52956;SDS011;38819;42.692;23.342;2023-04-15T14:49:43;3.88;;;0.88;;
52956;SDS011;38819;42.692;23.342;2023-04-15T14:52:09;4.13;;;0.85;;
52956;SDS011;38819;42.692;23.342;2023-04-15T14:54:34;1.63;;;0.80;;
52956;SDS011;38819;42.692;23.342;2023-04-15T14:56:59;2.08;;;0.60;;